sensor_id;sensor_type;location;lat;lon;timestamp;P1;durP1;ratioP1;P2;durP2;ratioP2
36593;SDS011;22603;47.900;8.146;2023-09-30T00:02:29;10.37;;;2.53;;
36593;SDS011;22603;47.900;8.146;2023-09-30T00:05:16;10.80;;;2.37;;
36593;SDS011;22603;47.900;8.146;2023-09-30T00:08:04;8.13;;;2.40;;
36593;SDS011;22603;47.900;8.146;2023-09-30T00:10:51;9.83;;;2.20;;
36593;SDS011;22603;47.900;8.146;2023-09-30T00:13:39;9.50;;;2.60;;
36593;SDS011;22603;47.900;8.146;2023-09-30T00:16:26;11.97;;;2.60;;
36593;SDS011;22603;47.900;8.146;2023-09-30T00:19:13;7.70;;;2.53;;
36593;SDS011;22603;47.900;8.146;2023-09-30T00:22:01;9.83;;;2.60;;
36593;SDS011;22603;47.900;8.146;2023-09-30T00:24:48;9.53;;;2.33;;
36593;SDS011;22603;47.900;8.146;2023-09-30T00:27:36;9.70;;;2.47;;
36593;SDS011;22603;47.900;8.146;2023-09-30T00:30:23;10.87;;;2.20;;
36593;SDS011;22603;47.900;8.146;2023-09-30T00:33:10;11.23;;;3.03;;
36593;SDS011;22603;47.900;8.146;2023-09-30T00:35:57;8.87;;;2.53;;
36593;SDS011;22603;47.900;8.146;2023-09-30T00:38:46;12.07;;;2.70;;
36593;SDS011;22603;47.900;8.146;2023-09-30T00:41:33;12.37;;;2.90;;
36593;SDS011;22603;47.900;8.146;2023-09-30T00:44:20;8.80;;;2.30;;
36593;SDS011;22603;47.900;8.146;2023-09-30T00:47:06;11.43;;;2.30;;
36593;SDS011;22603;47.900;8.146;2023-09-30T00:49:55;9.20;;;3.07;;
36593;SDS011;22603;47.900;8.146;2023-09-30T00:52:42;14.33;;;2.53;;
36593;SDS011;22603;47.900;8.146;2023-09-30T00:55:32;7.77;;;2.20;;
36593;SDS011;22603;47.900;8.146;2023-09-30T00:58:19;10.83;;;2.90;;
36593;SDS011;22603;47.900;8.146;2023-09-30T01:01:08;12.77;;;3.27;;
36593;SDS011;22603;47.900;8.146;2023-09-30T01:03:56;11.60;;;3.23;;
36593;SDS011;22603;47.900;8.146;2023-09-30T01:06:44;9.80;;;2.93;;
36593;SDS011;22603;47.900;8.146;2023-09-30T01:09:32;7.60;;;2.33;;
36593;SDS011;22603;47.900;8.146;2023-09-30T01:12:22;12.80;;;2.60;;
36593;SDS011;22603;47.900;8.146;2023-09-30T01:15:09;9.30;;;2.37;;
36593;SDS011;22603;47.900;8.146;2023-09-30T01:17:56;9.87;;;2.77;;
36593;SDS011;22603;47.900;8.146;2023-09-30T01:20:43;12.57;;;2.57;;
36593;SDS011;22603;47.900;8.146;2023-09-30T01:23:32;11.13;;;2.77;;
36593;SDS011;22603;47.900;8.146;2023-09-30T01:26:20;8.10;;;2.53;;
36593;SDS011;22603;47.900;8.146;2023-09-30T01:29:08;8.40;;;2.30;;
36593;SDS011;22603;47.900;8.146;2023-09-30T01:31:56;10.80;;;2.47;;
36593;SDS011;22603;47.900;8.146;2023-09-30T01:34:42;6.80;;;2.30;;
36593;SDS011;22603;47.900;8.146;2023-09-30T01:37:29;9.57;;;2.70;;
36593;SDS011;22603;47.900;8.146;2023-09-30T01:40:17;10.40;;;2.80;;
36593;SDS011;22603;47.900;8.146;2023-09-30T01:43:04;9.50;;;1.97;;
36593;SDS011;22603;47.900;8.146;2023-09-30T01:45:50;6.40;;;1.83;;
36593;SDS011;22603;47.900;8.146;2023-09-30T01:48:37;15.43;;;2.20;;
36593;SDS011;22603;47.900;8.146;2023-09-30T01:51:24;9.23;;;2.30;;
36593;SDS011;22603;47.900;8.146;2023-09-30T01:54:11;8.97;;;2.33;;
36593;SDS011;22603;47.900;8.146;2023-09-30T01:56:59;9.50;;;2.27;;
36593;SDS011;22603;47.900;8.146;2023-09-30T01:59:46;6.20;;;2.20;;
36593;SDS011;22603;47.900;8.146;2023-09-30T02:02:32;10.03;;;2.27;;
36593;SDS011;22603;47.900;8.146;2023-09-30T02:05:20;8.20;;;2.23;;
36593;SDS011;22603;47.900;8.146;2023-09-30T02:08:08;9.93;;;2.53;;
36593;SDS011;22603;47.900;8.146;2023-09-30T02:10:55;6.53;;;2.00;;
36593;SDS011;22603;47.900;8.146;2023-09-30T02:13:43;11.93;;;2.30;;
36593;SDS011;22603;47.900;8.146;2023-09-30T02:16:30;5.77;;;2.17;;
36593;SDS011;22603;47.900;8.146;2023-09-30T02:19:16;8.40;;;2.00;;
36593;SDS011;22603;47.900;8.146;2023-09-30T02:22:06;7.90;;;2.33;;
36593;SDS011;22603;47.900;8.146;2023-09-30T02:24:53;8.73;;;2.27;;
36593;SDS011;22603;47.900;8.146;2023-09-30T02:27:41;8.23;;;2.33;;
36593;SDS011;22603;47.900;8.146;2023-09-30T02:30:29;7.53;;;2.03;;
36593;SDS011;22603;47.900;8.146;2023-09-30T02:33:16;7.63;;;2.23;;
36593;SDS011;22603;47.900;8.146;2023-09-30T02:36:06;9.40;;;2.27;;
36593;SDS011;22603;47.900;8.146;2023-09-30T02:38:53;7.53;;;1.80;;
36593;SDS011;22603;47.900;8.146;2023-09-30T02:41:40;8.47;;;1.97;;
36593;SDS011;22603;47.900;8.146;2023-09-30T02:44:26;6.43;;;1.70;;
36593;SDS011;22603;47.900;8.146;2023-09-30T02:47:14;6.20;;;1.53;;
36593;SDS011;22603;47.900;8.146;2023-09-30T02:50:01;13.07;;;2.73;;
36593;SDS011;22603;47.900;8.146;2023-09-30T02:52:49;6.77;;;2.00;;
36593;SDS011;22603;47.900;8.146;2023-09-30T02:55:37;9.80;;;2.00;;
36593;SDS011;22603;47.900;8.146;2023-09-30T02:58:23;5.47;;;1.80;;
36593;SDS011;22603;47.900;8.146;2023-09-30T03:01:13;10.63;;;2.83;;
36593;SDS011;22603;47.900;8.146;2023-09-30T03:04:04;9.53;;;2.07;;
36593;SDS011;22603;47.900;8.146;2023-09-30T03:06:52;9.50;;;2.43;;
36593;SDS011;22603;47.900;8.146;2023-09-30T03:09:41;9.20;;;2.07;;
36593;SDS011;22603;47.900;8.146;2023-09-30T03:12:27;6.03;;;1.77;;
36593;SDS011;22603;47.900;8.146;2023-09-30T03:15:14;7.83;;;1.90;;
36593;SDS011;22603;47.900;8.146;2023-09-30T03:18:02;10.40;;;2.07;;
36593;SDS011;22603;47.900;8.146;2023-09-30T03:20:51;8.27;;;1.90;;
36593;SDS011;22603;47.900;8.146;2023-09-30T03:23:41;6.93;;;1.80;;
36593;SDS011;22603;47.900;8.146;2023-09-30T03:26:28;8.27;;;2.17;;
36593;SDS011;22603;47.900;8.146;2023-09-30T03:29:14;7.47;;;2.37;;
36593;SDS011;22603;47.900;8.146;2023-09-30T03:32:01;9.83;;;2.53;;
36593;SDS011;22603;47.900;8.146;2023-09-30T03:34:48;14.13;;;2.90;;
36593;SDS011;22603;47.900;8.146;2023-09-30T03:37:36;7.87;;;2.30;;
36593;SDS011;22603;47.900;8.146;2023-09-30T03:40:23;10.17;;;2.57;;
36593;SDS011;22603;47.900;8.146;2023-09-30T03:43:13;9.33;;;2.13;;
36593;SDS011;22603;47.900;8.146;2023-09-30T03:46:00;7.30;;;1.73;;
36593;SDS011;22603;47.900;8.146;2023-09-30T03:48:47;10.33;;;2.07;;
36593;SDS011;22603;47.900;8.146;2023-09-30T03:51:34;9.33;;;2.50;;
36593;SDS011;22603;47.900;8.146;2023-09-30T03:54:23;11.10;;;2.50;;
36593;SDS011;22603;47.900;8.146;2023-09-30T03:57:10;8.00;;;2.47;;
36593;SDS011;22603;47.900;8.146;2023-09-30T04:00:01;7.20;;;2.20;;
36593;SDS011;22603;47.900;8.146;2023-09-30T04:02:51;6.40;;;2.10;;
36593;SDS011;22603;47.900;8.146;2023-09-30T04:05:43;9.57;;;2.17;;
36593;SDS011;22603;47.900;8.146;2023-09-30T04:08:30;7.40;;;2.40;;
36593;SDS011;22603;47.900;8.146;2023-09-30T04:11:19;10.57;;;2.50;;
36593;SDS011;22603;47.900;8.146;2023-09-30T04:14:07;12.20;;;2.50;;
36593;SDS011;22603;47.900;8.146;2023-09-30T04:16:54;9.60;;;2.70;;
36593;SDS011;22603;47.900;8.146;2023-09-30T04:19:40;10.03;;;2.47;;
36593;SDS011;22603;47.900;8.146;2023-09-30T04:22:27;9.73;;;2.57;;
36593;SDS011;22603;47.900;8.146;2023-09-30T04:25:16;10.13;;;3.10;;
36593;SDS011;22603;47.900;8.146;2023-09-30T04:28:05;10.23;;;2.80;;
36593;SDS011;22603;47.900;8.146;2023-09-30T04:30:53;7.47;;;2.50;;
36593;SDS011;22603;47.900;8.146;2023-09-30T04:33:40;9.67;;;2.43;;
36593;SDS011;22603;47.900;8.146;2023-09-30T04:36:27;10.57;;;2.67;;
36593;SDS011;22603;47.900;8.146;2023-09-30T04:39:15;7.33;;;2.20;;
36593;SDS011;22603;47.900;8.146;2023-09-30T04:42:03;6.67;;;2.43;;
36593;SDS011;22603;47.900;8.146;2023-09-30T04:44:51;13.37;;;2.50;;
36593;SDS011;22603;47.900;8.146;2023-09-30T04:47:38;7.87;;;2.37;;
36593;SDS011;22603;47.900;8.146;2023-09-30T04:50:25;10.37;;;2.60;;
36593;SDS011;22603;47.900;8.146;2023-09-30T04:53:12;8.30;;;2.47;;
36593;SDS011;22603;47.900;8.146;2023-09-30T04:56:01;8.93;;;2.77;;
36593;SDS011;22603;47.900;8.146;2023-09-30T04:58:49;10.73;;;2.67;;
36593;SDS011;22603;47.900;8.146;2023-09-30T05:01:37;8.53;;;2.70;;
36593;SDS011;22603;47.900;8.146;2023-09-30T05:04:24;10.33;;;2.67;;
36593;SDS011;22603;47.900;8.146;2023-09-30T05:07:11;11.27;;;3.00;;
36593;SDS011;22603;47.900;8.146;2023-09-30T05:09:58;11.53;;;2.70;;
36593;SDS011;22603;47.900;8.146;2023-09-30T05:12:48;12.30;;;2.80;;
36593;SDS011;22603;47.900;8.146;2023-09-30T05:15:37;13.70;;;2.90;;
36593;SDS011;22603;47.900;8.146;2023-09-30T05:18:25;8.53;;;2.30;;
36593;SDS011;22603;47.900;8.146;2023-09-30T05:21:12;11.87;;;2.60;;
36593;SDS011;22603;47.900;8.146;2023-09-30T05:23:59;10.77;;;2.57;;
36593;SDS011;22603;47.900;8.146;2023-09-30T05:26:47;8.90;;;2.10;;
36593;SDS011;22603;47.900;8.146;2023-09-30T05:29:36;13.27;;;2.57;;
36593;SDS011;22603;47.900;8.146;2023-09-30T05:32:23;10.73;;;2.60;;
36593;SDS011;22603;47.900;8.146;2023-09-30T05:35:13;8.30;;;2.50;;
36593;SDS011;22603;47.900;8.146;2023-09-30T05:38:03;12.93;;;2.57;;
36593;SDS011;22603;47.900;8.146;2023-09-30T05:40:51;10.50;;;2.60;;
36593;SDS011;22603;47.900;8.146;2023-09-30T05:43:37;12.70;;;2.87;;
36593;SDS011;22603;47.900;8.146;2023-09-30T05:46:24;11.50;;;3.37;;
36593;SDS011;22603;47.900;8.146;2023-09-30T05:49:12;9.50;;;2.53;;
36593;SDS011;22603;47.900;8.146;2023-09-30T05:52:01;12.73;;;2.40;;
36593;SDS011;22603;47.900;8.146;2023-09-30T05:54:47;7.53;;;2.20;;
36593;SDS011;22603;47.900;8.146;2023-09-30T05:57:35;10.23;;;2.80;;
36593;SDS011;22603;47.900;8.146;2023-09-30T06:00:22;11.67;;;2.90;;
36593;SDS011;22603;47.900;8.146;2023-09-30T06:03:14;12.47;;;3.37;;
36593;SDS011;22603;47.900;8.146;2023-09-30T06:06:00;12.73;;;3.77;;
36593;SDS011;22603;47.900;8.146;2023-09-30T06:08:48;9.63;;;2.53;;
36593;SDS011;22603;47.900;8.146;2023-09-30T06:11:35;10.37;;;3.27;;
36593;SDS011;22603;47.900;8.146;2023-09-30T06:14:22;9.90;;;3.27;;
36593;SDS011;22603;47.900;8.146;2023-09-30T06:17:11;12.33;;;2.90;;
36593;SDS011;22603;47.900;8.146;2023-09-30T06:19:57;16.07;;;3.20;;
36593;SDS011;22603;47.900;8.146;2023-09-30T06:22:52;11.87;;;3.10;;
36593;SDS011;22603;47.900;8.146;2023-09-30T06:25:41;10.83;;;2.73;;
36593;SDS011;22603;47.900;8.146;2023-09-30T06:28:28;9.27;;;2.53;;
36593;SDS011;22603;47.900;8.146;2023-09-30T06:31:17;8.40;;;2.60;;
36593;SDS011;22603;47.900;8.146;2023-09-30T06:34:04;9.60;;;2.33;;
36593;SDS011;22603;47.900;8.146;2023-09-30T06:36:52;10.53;;;2.67;;
36593;SDS011;22603;47.900;8.146;2023-09-30T06:39:39;9.80;;;2.87;;
36593;SDS011;22603;47.900;8.146;2023-09-30T06:42:27;9.70;;;2.90;;
36593;SDS011;22603;47.900;8.146;2023-09-30T06:45:15;13.83;;;3.50;;
36593;SDS011;22603;47.900;8.146;2023-09-30T06:48:02;11.13;;;2.97;;
36593;SDS011;22603;47.900;8.146;2023-09-30T06:50:51;13.00;;;3.30;;
36593;SDS011;22603;47.900;8.146;2023-09-30T06:53:37;10.13;;;2.80;;
36593;SDS011;22603;47.900;8.146;2023-09-30T06:56:24;15.27;;;2.97;;
36593;SDS011;22603;47.900;8.146;2023-09-30T06:59:12;12.33;;;3.83;;
36593;SDS011;22603;47.900;8.146;2023-09-30T07:01:58;12.40;;;2.87;;
36593;SDS011;22603;47.900;8.146;2023-09-30T07:04:45;11.43;;;3.00;;
36593;SDS011;22603;47.900;8.146;2023-09-30T07:07:33;12.70;;;3.73;;
36593;SDS011;22603;47.900;8.146;2023-09-30T07:10:19;11.30;;;3.40;;
36593;SDS011;22603;47.900;8.146;2023-09-30T07:13:07;10.73;;;3.40;;
36593;SDS011;22603;47.900;8.146;2023-09-30T07:15:55;9.87;;;2.53;;
36593;SDS011;22603;47.900;8.146;2023-09-30T07:18:42;12.80;;;3.27;;
36593;SDS011;22603;47.900;8.146;2023-09-30T07:21:29;10.77;;;2.80;;
36593;SDS011;22603;47.900;8.146;2023-09-30T07:24:16;10.90;;;2.73;;
36593;SDS011;22603;47.900;8.146;2023-09-30T07:27:02;12.13;;;3.20;;
36593;SDS011;22603;47.900;8.146;2023-09-30T07:30:05;11.13;;;2.80;;
36593;SDS011;22603;47.900;8.146;2023-09-30T07:32:54;16.88;;;3.75;;
36593;SDS011;22603;47.900;8.146;2023-09-30T07:35:44;12.25;;;3.67;;
36593;SDS011;22603;47.900;8.146;2023-09-30T07:38:31;9.60;;;2.67;;
36593;SDS011;22603;47.900;8.146;2023-09-30T07:41:17;12.35;;;2.83;;
36593;SDS011;22603;47.900;8.146;2023-09-30T07:44:04;11.18;;;3.30;;
36593;SDS011;22603;47.900;8.146;2023-09-30T07:46:51;13.85;;;3.00;;
36593;SDS011;22603;47.900;8.146;2023-09-30T07:49:39;13.23;;;3.22;;
36593;SDS011;22603;47.900;8.146;2023-09-30T07:52:26;9.20;;;2.85;;
36593;SDS011;22603;47.900;8.146;2023-09-30T07:55:12;11.90;;;3.40;;
36593;SDS011;22603;47.900;8.146;2023-09-30T07:57:59;11.52;;;2.90;;
36593;SDS011;22603;47.900;8.146;2023-09-30T08:00:48;11.73;;;3.42;;
36593;SDS011;22603;47.900;8.146;2023-09-30T08:03:36;12.32;;;3.20;;
36593;SDS011;22603;47.900;8.146;2023-09-30T08:06:24;9.80;;;3.30;;
36593;SDS011;22603;47.900;8.146;2023-09-30T08:09:11;18.33;;;3.85;;
36593;SDS011;22603;47.900;8.146;2023-09-30T08:11:59;9.98;;;3.15;;
36593;SDS011;22603;47.900;8.146;2023-09-30T08:14:46;10.13;;;3.33;;
36593;SDS011;22603;47.900;8.146;2023-09-30T08:17:33;13.98;;;3.65;;
36593;SDS011;22603;47.900;8.146;2023-09-30T08:20:20;12.40;;;3.60;;
36593;SDS011;22603;47.900;8.146;2023-09-30T08:23:08;12.98;;;3.63;;
36593;SDS011;22603;47.900;8.146;2023-09-30T08:25:57;12.25;;;3.22;;
36593;SDS011;22603;47.900;8.146;2023-09-30T08:28:45;13.82;;;3.47;;
36593;SDS011;22603;47.900;8.146;2023-09-30T08:31:31;12.38;;;3.15;;
36593;SDS011;22603;47.900;8.146;2023-09-30T08:34:19;12.10;;;3.40;;
36593;SDS011;22603;47.900;8.146;2023-09-30T08:37:08;11.85;;;3.40;;
36593;SDS011;22603;47.900;8.146;2023-09-30T08:39:56;10.80;;;3.00;;
36593;SDS011;22603;47.900;8.146;2023-09-30T08:42:43;14.60;;;3.85;;
36593;SDS011;22603;47.900;8.146;2023-09-30T08:45:30;16.60;;;3.97;;
36593;SDS011;22603;47.900;8.146;2023-09-30T08:48:22;14.50;;;3.35;;
36593;SDS011;22603;47.900;8.146;2023-09-30T08:51:11;16.27;;;3.40;;
36593;SDS011;22603;47.900;8.146;2023-09-30T08:53:58;14.90;;;3.92;;
36593;SDS011;22603;47.900;8.146;2023-09-30T08:56:48;12.43;;;3.28;;
36593;SDS011;22603;47.900;8.146;2023-09-30T08:59:36;12.90;;;3.45;;
36593;SDS011;22603;47.900;8.146;2023-09-30T09:02:27;15.18;;;3.65;;
36593;SDS011;22603;47.900;8.146;2023-09-30T09:05:14;11.45;;;3.95;;
36593;SDS011;22603;47.900;8.146;2023-09-30T09:08:01;14.88;;;4.20;;
36593;SDS011;22603;47.900;8.146;2023-09-30T09:10:53;12.00;;;3.88;;
36593;SDS011;22603;47.900;8.146;2023-09-30T09:13:47;12.93;;;3.22;;
36593;SDS011;22603;47.900;8.146;2023-09-30T09:16:35;11.27;;;3.67;;
36593;SDS011;22603;47.900;8.146;2023-09-30T09:19:23;14.20;;;3.70;;
36593;SDS011;22603;47.900;8.146;2023-09-30T09:22:09;10.48;;;4.10;;
36593;SDS011;22603;47.900;8.146;2023-09-30T09:24:56;12.88;;;3.55;;
36593;SDS011;22603;47.900;8.146;2023-09-30T09:27:45;13.93;;;3.88;;
36593;SDS011;22603;47.900;8.146;2023-09-30T09:30:34;13.35;;;3.10;;
36593;SDS011;22603;47.900;8.146;2023-09-30T09:33:31;13.77;;;3.83;;
36593;SDS011;22603;47.900;8.146;2023-09-30T09:36:22;16.80;;;3.75;;
36593;SDS011;22603;47.900;8.146;2023-09-30T09:39:28;15.57;;;4.10;;
36593;SDS011;22603;47.900;8.146;2023-09-30T09:42:26;16.60;;;4.10;;
36593;SDS011;22603;47.900;8.146;2023-09-30T09:45:14;19.67;;;4.72;;
36593;SDS011;22603;47.900;8.146;2023-09-30T09:48:03;14.75;;;4.10;;
36593;SDS011;22603;47.900;8.146;2023-09-30T09:50:52;18.73;;;4.20;;
36593;SDS011;22603;47.900;8.146;2023-09-30T09:53:41;13.45;;;4.50;;
36593;SDS011;22603;47.900;8.146;2023-09-30T09:56:28;13.32;;;3.88;;
36593;SDS011;22603;47.900;8.146;2023-09-30T09:59:15;12.73;;;4.45;;
36593;SDS011;22603;47.900;8.146;2023-09-30T10:02:02;14.48;;;4.35;;
36593;SDS011;22603;47.900;8.146;2023-09-30T10:04:56;16.60;;;4.45;;
36593;SDS011;22603;47.900;8.146;2023-09-30T10:07:44;14.30;;;4.03;;
36593;SDS011;22603;47.900;8.146;2023-09-30T10:10:35;13.68;;;3.55;;
36593;SDS011;22603;47.900;8.146;2023-09-30T10:16:50;12.13;;;3.63;;
36593;SDS011;22603;47.900;8.146;2023-09-30T10:19:49;16.30;;;4.28;;
36593;SDS011;22603;47.900;8.146;2023-09-30T10:26:14;12.27;;;3.53;;
36593;SDS011;22603;47.900;8.146;2023-09-30T10:29:08;11.45;;;3.35;;
36593;SDS011;22603;47.900;8.146;2023-09-30T10:31:55;12.63;;;4.00;;
36593;SDS011;22603;47.900;8.146;2023-09-30T10:34:47;13.55;;;3.67;;
36593;SDS011;22603;47.900;8.146;2023-09-30T10:37:36;12.88;;;4.00;;
36593;SDS011;22603;47.900;8.146;2023-09-30T10:40:25;14.07;;;4.55;;
36593;SDS011;22603;47.900;8.146;2023-09-30T10:46:31;12.88;;;4.10;;
36593;SDS011;22603;47.900;8.146;2023-09-30T10:49:30;13.15;;;3.58;;
36593;SDS011;22603;47.900;8.146;2023-09-30T10:52:21;13.35;;;3.97;;
36593;SDS011;22603;47.900;8.146;2023-09-30T10:55:11;13.32;;;3.65;;
36593;SDS011;22603;47.900;8.146;2023-09-30T10:58:03;12.48;;;3.95;;
36593;SDS011;22603;47.900;8.146;2023-09-30T11:00:51;13.13;;;4.05;;
36593;SDS011;22603;47.900;8.146;2023-09-30T11:03:39;17.33;;;3.65;;
36593;SDS011;22603;47.900;8.146;2023-09-30T11:06:27;14.15;;;3.85;;
36593;SDS011;22603;47.900;8.146;2023-09-30T11:09:15;23.15;;;4.60;;
36593;SDS011;22603;47.900;8.146;2023-09-30T11:12:04;17.77;;;3.97;;
36593;SDS011;22603;47.900;8.146;2023-09-30T11:15:00;14.93;;;4.45;;
36593;SDS011;22603;47.900;8.146;2023-09-30T11:17:49;12.73;;;3.60;;
36593;SDS011;22603;47.900;8.146;2023-09-30T11:20:35;13.18;;;3.72;;
36593;SDS011;22603;47.900;8.146;2023-09-30T11:23:22;13.75;;;3.42;;
36593;SDS011;22603;47.900;8.146;2023-09-30T11:26:09;12.85;;;3.90;;
36593;SDS011;22603;47.900;8.146;2023-09-30T11:29:10;13.13;;;4.32;;
36593;SDS011;22603;47.900;8.146;2023-09-30T11:31:58;12.80;;;3.95;;
36593;SDS011;22603;47.900;8.146;2023-09-30T11:34:49;13.32;;;3.97;;
36593;SDS011;22603;47.900;8.146;2023-09-30T11:37:36;14.10;;;4.10;;
36593;SDS011;22603;47.900;8.146;2023-09-30T11:40:22;13.70;;;3.97;;
36593;SDS011;22603;47.900;8.146;2023-09-30T11:43:09;18.77;;;4.43;;
36593;SDS011;22603;47.900;8.146;2023-09-30T11:46:05;12.73;;;4.05;;
36593;SDS011;22603;47.900;8.146;2023-09-30T11:48:56;11.85;;;3.75;;
36593;SDS011;22603;47.900;8.146;2023-09-30T11:51:43;12.00;;;4.10;;
36593;SDS011;22603;47.900;8.146;2023-09-30T11:54:31;13.73;;;4.30;;
36593;SDS011;22603;47.900;8.146;2023-09-30T11:57:19;14.40;;;4.00;;
36593;SDS011;22603;47.900;8.146;2023-09-30T12:00:06;12.77;;;3.83;;
36593;SDS011;22603;47.900;8.146;2023-09-30T12:03:00;13.88;;;3.95;;
36593;SDS011;22603;47.900;8.146;2023-09-30T12:05:47;13.23;;;4.25;;
36593;SDS011;22603;47.900;8.146;2023-09-30T12:08:33;12.10;;;3.60;;
36593;SDS011;22603;47.900;8.146;2023-09-30T12:11:22;11.25;;;3.35;;
36593;SDS011;22603;47.900;8.146;2023-09-30T12:14:11;12.27;;;3.72;;
36593;SDS011;22603;47.900;8.146;2023-09-30T12:16:58;12.82;;;3.90;;
36593;SDS011;22603;47.900;8.146;2023-09-30T12:19:46;14.80;;;4.10;;
36593;SDS011;22603;47.900;8.146;2023-09-30T12:22:33;14.10;;;4.10;;
36593;SDS011;22603;47.900;8.146;2023-09-30T12:25:21;14.25;;;4.07;;
36593;SDS011;22603;47.900;8.146;2023-09-30T12:28:10;17.85;;;4.05;;
36593;SDS011;22603;47.900;8.146;2023-09-30T12:30:59;13.18;;;4.22;;
36593;SDS011;22603;47.900;8.146;2023-09-30T12:33:48;18.23;;;4.43;;
36593;SDS011;22603;47.900;8.146;2023-09-30T12:36:38;12.60;;;3.78;;
36593;SDS011;22603;47.900;8.146;2023-09-30T12:39:25;13.50;;;4.10;;
36593;SDS011;22603;47.900;8.146;2023-09-30T12:42:15;14.85;;;4.03;;
36593;SDS011;22603;47.900;8.146;2023-09-30T12:45:02;12.75;;;3.95;;
36593;SDS011;22603;47.900;8.146;2023-09-30T12:47:50;16.45;;;4.20;;
36593;SDS011;22603;47.900;8.146;2023-09-30T12:50:39;14.15;;;4.45;;
36593;SDS011;22603;47.900;8.146;2023-09-30T12:53:27;13.40;;;3.83;;
36593;SDS011;22603;47.900;8.146;2023-09-30T12:56:14;12.35;;;3.75;;
36593;SDS011;22603;47.900;8.146;2023-09-30T12:59:00;12.48;;;3.65;;
36593;SDS011;22603;47.900;8.146;2023-09-30T13:01:48;16.10;;;4.30;;
36593;SDS011;22603;47.900;8.146;2023-09-30T13:04:35;13.43;;;4.13;;
36593;SDS011;22603;47.900;8.146;2023-09-30T13:07:28;15.25;;;4.05;;
36593;SDS011;22603;47.900;8.146;2023-09-30T13:10:17;12.75;;;4.18;;
36593;SDS011;22603;47.900;8.146;2023-09-30T13:13:03;13.45;;;3.80;;
36593;SDS011;22603;47.900;8.146;2023-09-30T13:15:50;15.50;;;4.03;;
36593;SDS011;22603;47.900;8.146;2023-09-30T13:18:38;15.95;;;4.65;;
36593;SDS011;22603;47.900;8.146;2023-09-30T13:21:26;13.32;;;4.10;;
36593;SDS011;22603;47.900;8.146;2023-09-30T13:24:13;15.27;;;4.28;;
36593;SDS011;22603;47.900;8.146;2023-09-30T13:27:01;13.02;;;4.05;;
36593;SDS011;22603;47.900;8.146;2023-09-30T13:29:48;14.80;;;4.18;;
36593;SDS011;22603;47.900;8.146;2023-09-30T13:32:35;17.70;;;4.88;;
36593;SDS011;22603;47.900;8.146;2023-09-30T13:35:22;17.48;;;3.55;;
36593;SDS011;22603;47.900;8.146;2023-09-30T13:38:09;14.52;;;4.25;;
36593;SDS011;22603;47.900;8.146;2023-09-30T13:40:56;10.70;;;3.47;;
36593;SDS011;22603;47.900;8.146;2023-09-30T13:43:44;13.57;;;3.65;;
36593;SDS011;22603;47.900;8.146;2023-09-30T13:46:31;12.50;;;3.53;;
36593;SDS011;22603;47.900;8.146;2023-09-30T13:49:18;14.40;;;3.63;;
36593;SDS011;22603;47.900;8.146;2023-09-30T13:52:05;12.57;;;3.55;;
36593;SDS011;22603;47.900;8.146;2023-09-30T13:54:53;14.35;;;3.35;;
36593;SDS011;22603;47.900;8.146;2023-09-30T13:57:40;13.38;;;3.78;;
36593;SDS011;22603;47.900;8.146;2023-09-30T14:00:28;14.23;;;4.10;;
36593;SDS011;22603;47.900;8.146;2023-09-30T14:03:16;10.50;;;3.55;;
36593;SDS011;22603;47.900;8.146;2023-09-30T14:06:08;14.90;;;4.00;;
36593;SDS011;22603;47.900;8.146;2023-09-30T14:08:57;13.75;;;4.10;;
36593;SDS011;22603;47.900;8.146;2023-09-30T14:11:44;14.27;;;4.07;;
36593;SDS011;22603;47.900;8.146;2023-09-30T14:14:31;13.52;;;4.20;;
36593;SDS011;22603;47.900;8.146;2023-09-30T14:17:21;13.63;;;3.75;;
36593;SDS011;22603;47.900;8.146;2023-09-30T14:20:08;12.73;;;3.42;;
36593;SDS011;22603;47.900;8.146;2023-09-30T14:22:57;18.52;;;4.70;;
36593;SDS011;22603;47.900;8.146;2023-09-30T14:25:44;14.95;;;3.63;;
36593;SDS011;22603;47.900;8.146;2023-09-30T14:28:30;14.77;;;4.50;;
36593;SDS011;22603;47.900;8.146;2023-09-30T14:31:18;10.88;;;3.65;;
36593;SDS011;22603;47.900;8.146;2023-09-30T14:34:07;13.95;;;4.28;;
36593;SDS011;22603;47.900;8.146;2023-09-30T14:36:53;14.38;;;3.95;;
36593;SDS011;22603;47.900;8.146;2023-09-30T14:39:40;17.95;;;3.97;;
36593;SDS011;22603;47.900;8.146;2023-09-30T14:42:27;11.95;;;3.33;;
36593;SDS011;22603;47.900;8.146;2023-09-30T14:45:14;11.32;;;3.65;;
36593;SDS011;22603;47.900;8.146;2023-09-30T14:48:01;14.38;;;4.13;;
36593;SDS011;22603;47.900;8.146;2023-09-30T14:50:50;11.98;;;3.35;;
36593;SDS011;22603;47.900;8.146;2023-09-30T14:53:37;13.63;;;3.50;;
36593;SDS011;22603;47.900;8.146;2023-09-30T14:56:25;15.32;;;3.60;;
36593;SDS011;22603;47.900;8.146;2023-09-30T14:59:12;16.10;;;3.92;;
36593;SDS011;22603;47.900;8.146;2023-09-30T15:01:59;13.43;;;4.53;;
36593;SDS011;22603;47.900;8.146;2023-09-30T15:04:46;12.43;;;3.88;;
36593;SDS011;22603;47.900;8.146;2023-09-30T15:07:35;14.10;;;4.25;;
36593;SDS011;22603;47.900;8.146;2023-09-30T15:10:23;13.15;;;3.67;;
36593;SDS011;22603;47.900;8.146;2023-09-30T15:13:09;16.08;;;4.50;;
36593;SDS011;22603;47.900;8.146;2023-09-30T15:15:56;15.65;;;3.88;;
36593;SDS011;22603;47.900;8.146;2023-09-30T15:18:43;17.20;;;4.10;;
36593;SDS011;22603;47.900;8.146;2023-09-30T15:21:31;15.38;;;4.05;;
36593;SDS011;22603;47.900;8.146;2023-09-30T15:24:19;13.82;;;4.50;;
36593;SDS011;22603;47.900;8.146;2023-09-30T15:27:06;13.52;;;3.30;;
36593;SDS011;22603;47.900;8.146;2023-09-30T15:29:53;13.90;;;3.85;;
36593;SDS011;22603;47.900;8.146;2023-09-30T15:32:40;16.10;;;3.90;;
36593;SDS011;22603;47.900;8.146;2023-09-30T15:35:27;17.55;;;4.10;;
36593;SDS011;22603;47.900;8.146;2023-09-30T15:38:14;12.45;;;4.10;;
36593;SDS011;22603;47.900;8.146;2023-09-30T15:41:02;11.52;;;3.85;;
36593;SDS011;22603;47.900;8.146;2023-09-30T15:43:49;12.77;;;3.60;;
36593;SDS011;22603;47.900;8.146;2023-09-30T15:46:36;13.57;;;3.60;;
36593;SDS011;22603;47.900;8.146;2023-09-30T15:49:24;12.32;;;3.95;;
36593;SDS011;22603;47.900;8.146;2023-09-30T15:52:11;12.45;;;3.75;;
36593;SDS011;22603;47.900;8.146;2023-09-30T15:54:58;16.00;;;4.40;;
36593;SDS011;22603;47.900;8.146;2023-09-30T15:57:47;15.10;;;3.85;;
36593;SDS011;22603;47.900;8.146;2023-09-30T16:00:35;15.55;;;3.78;;
36593;SDS011;22603;47.900;8.146;2023-09-30T16:03:23;15.95;;;4.22;;
36593;SDS011;22603;47.900;8.146;2023-09-30T16:06:10;12.48;;;3.72;;
36593;SDS011;22603;47.900;8.146;2023-09-30T16:08:57;13.40;;;3.50;;
36593;SDS011;22603;47.900;8.146;2023-09-30T16:11:44;10.30;;;3.05;;
36593;SDS011;22603;47.900;8.146;2023-09-30T16:14:34;10.98;;;3.97;;
36593;SDS011;22603;47.900;8.146;2023-09-30T16:17:21;13.70;;;4.03;;
36593;SDS011;22603;47.900;8.146;2023-09-30T16:20:08;14.18;;;3.92;;
36593;SDS011;22603;47.900;8.146;2023-09-30T16:22:56;11.25;;;3.42;;
36593;SDS011;22603;47.900;8.146;2023-09-30T16:25:43;16.63;;;4.55;;
36593;SDS011;22603;47.900;8.146;2023-09-30T16:28:30;14.63;;;3.67;;
36593;SDS011;22603;47.900;8.146;2023-09-30T16:31:18;12.20;;;4.15;;
36593;SDS011;22603;47.900;8.146;2023-09-30T16:34:05;11.38;;;3.33;;
36593;SDS011;22603;47.900;8.146;2023-09-30T16:36:54;15.95;;;5.28;;
36593;SDS011;22603;47.900;8.146;2023-09-30T16:39:41;13.85;;;3.90;;
36593;SDS011;22603;47.900;8.146;2023-09-30T16:42:28;13.80;;;4.03;;
36593;SDS011;22603;47.900;8.146;2023-09-30T16:45:16;16.02;;;4.13;;
36593;SDS011;22603;47.900;8.146;2023-09-30T16:48:04;12.25;;;3.70;;
36593;SDS011;22603;47.900;8.146;2023-09-30T16:50:51;11.98;;;4.45;;
36593;SDS011;22603;47.900;8.146;2023-09-30T16:53:39;12.00;;;3.05;;